sensor_id;sensor_type;location;lat;lon;timestamp;P1;durP1;ratioP1;P2;durP2;ratioP2
3769;SDS011;1900;48.890;9.190;2023-04-15T00:02:23;9.67;;;5.20;;
3769;SDS011;1900;48.890;9.190;2023-04-15T00:04:49;19.23;;;5.67;;
3769;SDS011;1900;48.890;9.190;2023-04-15T00:07:14;8.53;;;5.70;;
3769;SDS011;1900;48.890;9.190;2023-04-15T00:09:40;7.27;;;5.40;;
3769;SDS011;1900;48.890;9.190;2023-04-15T00:12:07;11.23;;;5.73;;
3769;SDS011;1900;48.890;9.190;2023-04-15T00:14:36;12.40;;;6.17;;
3769;SDS011;1900;48.890;9.190;2023-04-15T00:17:01;8.90;;;5.70;;
3769;SDS011;1900;48.890;9.190;2023-04-15T00:19:30;9.97;;;5.27;;
3769;SDS011;1900;48.890;9.190;2023-04-15T00:21:56;9.60;;;6.20;;
3769;SDS011;1900;48.890;9.190;2023-04-15T00:24:22;12.90;;;6.77;;
3769;SDS011;1900;48.890;9.190;2023-04-15T00:26:48;6.87;;;5.50;;
3769;SDS011;1900;48.890;9.190;2023-04-15T00:29:14;9.93;;;5.63;;
3769;SDS011;1900;48.890;9.190;2023-04-15T00:31:39;13.53;;;4.97;;
3769;SDS011;1900;48.890;9.190;2023-04-15T00:34:06;9.90;;;6.10;;
3769;SDS011;1900;48.890;9.190;2023-04-15T00:36:32;9.10;;;5.40;;
3769;SDS011;1900;48.890;9.190;2023-04-15T00:38:59;7.40;;;5.17;;
3769;SDS011;1900;48.890;9.190;2023-04-15T00:41:25;9.70;;;5.53;;
3769;SDS011;1900;48.890;9.190;2023-04-15T00:43:50;9.50;;;5.83;;
3769;SDS011;1900;48.890;9.190;2023-04-15T00:46:16;14.43;;;5.20;;
3769;SDS011;1900;48.890;9.190;2023-04-15T00:48:45;9.87;;;5.73;;
3769;SDS011;1900;48.890;9.190;2023-04-15T00:51:11;10.67;;;5.90;;
3769;SDS011;1900;48.890;9.190;2023-04-15T00:53:38;9.23;;;5.87;;
3769;SDS011;1900;48.890;9.190;2023-04-15T00:56:06;12.30;;;6.10;;
3769;SDS011;1900;48.890;9.190;2023-04-15T00:58:32;8.60;;;5.83;;
3769;SDS011;1900;48.890;9.190;2023-04-15T01:00:58;17.60;;;6.00;;
3769;SDS011;1900;48.890;9.190;2023-04-15T01:03:24;11.00;;;6.47;;
3769;SDS011;1900;48.890;9.190;2023-04-15T01:05:50;10.50;;;5.93;;
3769;SDS011;1900;48.890;9.190;2023-04-15T01:08:25;13.53;;;6.30;;
3769;SDS011;1900;48.890;9.190;2023-04-15T01:10:52;9.57;;;5.87;;
3769;SDS011;1900;48.890;9.190;2023-04-15T01:13:21;11.37;;;6.97;;
3769;SDS011;1900;48.890;9.190;2023-04-15T01:15:48;10.03;;;5.17;;
3769;SDS011;1900;48.890;9.190;2023-04-15T01:18:14;8.73;;;5.03;;
3769;SDS011;1900;48.890;9.190;2023-04-15T01:20:40;9.67;;;5.77;;
3769;SDS011;1900;48.890;9.190;2023-04-15T01:23:05;9.93;;;6.00;;
3769;SDS011;1900;48.890;9.190;2023-04-15T01:25:32;12.47;;;6.30;;
3769;SDS011;1900;48.890;9.190;2023-04-15T01:27:58;13.00;;;6.30;;
3769;SDS011;1900;48.890;9.190;2023-04-15T01:30:24;11.87;;;6.60;;
3769;SDS011;1900;48.890;9.190;2023-04-15T01:32:52;10.00;;;5.83;;
3769;SDS011;1900;48.890;9.190;2023-04-15T01:35:18;13.00;;;7.03;;
3769;SDS011;1900;48.890;9.190;2023-04-15T01:37:45;11.63;;;6.13;;
3769;SDS011;1900;48.890;9.190;2023-04-15T01:40:11;16.77;;;7.27;;
3769;SDS011;1900;48.890;9.190;2023-04-15T01:42:38;13.50;;;7.63;;
3769;SDS011;1900;48.890;9.190;2023-04-15T01:45:03;16.53;;;6.97;;
3769;SDS011;1900;48.890;9.190;2023-04-15T01:47:31;14.50;;;6.83;;
3769;SDS011;1900;48.890;9.190;2023-04-15T01:49:57;13.30;;;5.80;;
3769;SDS011;1900;48.890;9.190;2023-04-15T01:52:23;15.27;;;7.30;;
3769;SDS011;1900;48.890;9.190;2023-04-15T01:54:49;12.20;;;6.00;;
3769;SDS011;1900;48.890;9.190;2023-04-15T01:57:17;10.30;;;6.33;;
3769;SDS011;1900;48.890;9.190;2023-04-15T01:59:43;8.47;;;5.90;;
3769;SDS011;1900;48.890;9.190;2023-04-15T02:02:09;11.30;;;7.30;;
3769;SDS011;1900;48.890;9.190;2023-04-15T02:04:34;13.10;;;6.40;;
3769;SDS011;1900;48.890;9.190;2023-04-15T02:07:00;8.33;;;5.37;;
3769;SDS011;1900;48.890;9.190;2023-04-15T02:09:26;13.10;;;6.93;;
3769;SDS011;1900;48.890;9.190;2023-04-15T02:11:51;12.77;;;6.90;;
3769;SDS011;1900;48.890;9.190;2023-04-15T02:14:20;11.53;;;6.57;;
3769;SDS011;1900;48.890;9.190;2023-04-15T02:16:46;15.60;;;6.80;;
3769;SDS011;1900;48.890;9.190;2023-04-15T02:19:14;14.03;;;7.10;;
3769;SDS011;1900;48.890;9.190;2023-04-15T02:21:40;15.10;;;7.40;;
3769;SDS011;1900;48.890;9.190;2023-04-15T02:24:06;14.67;;;7.00;;
3769;SDS011;1900;48.890;9.190;2023-04-15T02:26:32;14.30;;;7.43;;
3769;SDS011;1900;48.890;9.190;2023-04-15T02:28:58;12.40;;;6.03;;
3769;SDS011;1900;48.890;9.190;2023-04-15T02:31:24;12.93;;;6.73;;
3769;SDS011;1900;48.890;9.190;2023-04-15T02:33:50;12.67;;;6.40;;
3769;SDS011;1900;48.890;9.190;2023-04-15T02:36:16;11.03;;;6.20;;
3769;SDS011;1900;48.890;9.190;2023-04-15T02:38:42;10.73;;;5.67;;
3769;SDS011;1900;48.890;9.190;2023-04-15T02:41:08;11.50;;;5.93;;
3769;SDS011;1900;48.890;9.190;2023-04-15T02:43:35;11.13;;;5.83;;
3769;SDS011;1900;48.890;9.190;2023-04-15T02:46:02;7.57;;;5.50;;
3769;SDS011;1900;48.890;9.190;2023-04-15T02:48:28;14.00;;;6.30;;
3769;SDS011;1900;48.890;9.190;2023-04-15T02:51:14;16.87;;;7.33;;
3769;SDS011;1900;48.890;9.190;2023-04-15T02:53:40;10.03;;;6.60;;
3769;SDS011;1900;48.890;9.190;2023-04-15T02:56:06;22.10;;;8.50;;
3769;SDS011;1900;48.890;9.190;2023-04-15T02:58:34;10.60;;;6.60;;
3769;SDS011;1900;48.890;9.190;2023-04-15T03:01:00;12.90;;;7.20;;
3769;SDS011;1900;48.890;9.190;2023-04-15T03:03:26;9.30;;;6.07;;
3769;SDS011;1900;48.890;9.190;2023-04-15T03:05:52;16.10;;;7.10;;
3769;SDS011;1900;48.890;9.190;2023-04-15T03:08:18;10.23;;;5.10;;
3769;SDS011;1900;48.890;9.190;2023-04-15T03:10:45;14.60;;;5.70;;
3769;SDS011;1900;48.890;9.190;2023-04-15T03:13:11;13.33;;;5.60;;
3769;SDS011;1900;48.890;9.190;2023-04-15T03:15:38;12.10;;;6.97;;
3769;SDS011;1900;48.890;9.190;2023-04-15T03:18:04;14.13;;;5.80;;
3769;SDS011;1900;48.890;9.190;2023-04-15T03:20:29;11.80;;;6.87;;
3769;SDS011;1900;48.890;9.190;2023-04-15T03:22:55;10.87;;;6.20;;
3769;SDS011;1900;48.890;9.190;2023-04-15T03:25:22;11.10;;;7.10;;
3769;SDS011;1900;48.890;9.190;2023-04-15T03:27:48;11.30;;;6.03;;
3769;SDS011;1900;48.890;9.190;2023-04-15T03:30:15;9.87;;;6.73;;
3769;SDS011;1900;48.890;9.190;2023-04-15T03:32:41;11.83;;;6.23;;
3769;SDS011;1900;48.890;9.190;2023-04-15T03:35:07;9.63;;;6.60;;
3769;SDS011;1900;48.890;9.190;2023-04-15T03:37:33;10.23;;;6.23;;
3769;SDS011;1900;48.890;9.190;2023-04-15T03:39:59;9.67;;;5.53;;
3769;SDS011;1900;48.890;9.190;2023-04-15T03:42:26;12.30;;;6.10;;
3769;SDS011;1900;48.890;9.190;2023-04-15T03:44:51;8.87;;;5.77;;
3769;SDS011;1900;48.890;9.190;2023-04-15T03:47:17;10.80;;;6.50;;
3769;SDS011;1900;48.890;9.190;2023-04-15T03:49:43;8.93;;;6.33;;
3769;SDS011;1900;48.890;9.190;2023-04-15T03:52:08;15.50;;;6.20;;
3769;SDS011;1900;48.890;9.190;2023-04-15T03:54:34;10.20;;;6.07;;
3769;SDS011;1900;48.890;9.190;2023-04-15T03:57:00;11.83;;;6.27;;
3769;SDS011;1900;48.890;9.190;2023-04-15T03:59:25;11.70;;;5.70;;
3769;SDS011;1900;48.890;9.190;2023-04-15T04:01:51;13.60;;;6.50;;
3769;SDS011;1900;48.890;9.190;2023-04-15T04:04:17;14.63;;;6.17;;
3769;SDS011;1900;48.890;9.190;2023-04-15T04:06:42;13.73;;;5.77;;
3769;SDS011;1900;48.890;9.190;2023-04-15T04:09:08;10.40;;;6.70;;
3769;SDS011;1900;48.890;9.190;2023-04-15T04:11:34;9.30;;;5.83;;
3769;SDS011;1900;48.890;9.190;2023-04-15T04:14:01;10.80;;;6.53;;
3769;SDS011;1900;48.890;9.190;2023-04-15T04:16:27;15.70;;;6.63;;
3769;SDS011;1900;48.890;9.190;2023-04-15T04:18:53;10.90;;;6.00;;
3769;SDS011;1900;48.890;9.190;2023-04-15T04:21:18;8.13;;;6.07;;
3769;SDS011;1900;48.890;9.190;2023-04-15T04:23:45;9.40;;;5.70;;
3769;SDS011;1900;48.890;9.190;2023-04-15T04:26:11;13.73;;;6.70;;
3769;SDS011;1900;48.890;9.190;2023-04-15T04:28:36;8.00;;;5.47;;
3769;SDS011;1900;48.890;9.190;2023-04-15T04:31:05;14.17;;;6.60;;
3769;SDS011;1900;48.890;9.190;2023-04-15T04:33:31;10.80;;;5.83;;
3769;SDS011;1900;48.890;9.190;2023-04-15T04:35:57;12.70;;;6.17;;
3769;SDS011;1900;48.890;9.190;2023-04-15T04:38:23;11.03;;;6.30;;
3769;SDS011;1900;48.890;9.190;2023-04-15T04:40:49;11.63;;;5.60;;
3769;SDS011;1900;48.890;9.190;2023-04-15T04:43:14;15.20;;;5.93;;
3769;SDS011;1900;48.890;9.190;2023-04-15T04:45:40;10.47;;;5.67;;
3769;SDS011;1900;48.890;9.190;2023-04-15T04:48:06;18.33;;;6.27;;
3769;SDS011;1900;48.890;9.190;2023-04-15T04:50:33;12.80;;;6.00;;
3769;SDS011;1900;48.890;9.190;2023-04-15T04:52:59;9.17;;;5.47;;
3769;SDS011;1900;48.890;9.190;2023-04-15T04:55:25;11.30;;;5.47;;
3769;SDS011;1900;48.890;9.190;2023-04-15T04:57:51;11.43;;;5.73;;
3769;SDS011;1900;48.890;9.190;2023-04-15T05:00:17;6.87;;;5.50;;
3769;SDS011;1900;48.890;9.190;2023-04-15T05:02:43;8.60;;;5.57;;
3769;SDS011;1900;48.890;9.190;2023-04-15T05:05:09;8.63;;;5.77;;
3769;SDS011;1900;48.890;9.190;2023-04-15T05:07:38;11.40;;;6.27;;
3769;SDS011;1900;48.890;9.190;2023-04-15T05:10:04;11.97;;;5.20;;
3769;SDS011;1900;48.890;9.190;2023-04-15T05:12:30;7.90;;;5.50;;
3769;SDS011;1900;48.890;9.190;2023-04-15T05:14:56;18.50;;;5.80;;
3769;SDS011;1900;48.890;9.190;2023-04-15T05:17:22;10.63;;;6.83;;
3769;SDS011;1900;48.890;9.190;2023-04-15T05:19:48;13.90;;;7.40;;
3769;SDS011;1900;48.890;9.190;2023-04-15T05:22:13;14.10;;;7.90;;
3769;SDS011;1900;48.890;9.190;2023-04-15T05:24:39;14.67;;;7.30;;
3769;SDS011;1900;48.890;9.190;2023-04-15T05:27:05;13.27;;;8.20;;
3769;SDS011;1900;48.890;9.190;2023-04-15T05:29:32;13.87;;;7.67;;
3769;SDS011;1900;48.890;9.190;2023-04-15T05:31:58;15.97;;;6.70;;
3769;SDS011;1900;48.890;9.190;2023-04-15T05:34:24;12.00;;;6.90;;
3769;SDS011;1900;48.890;9.190;2023-04-15T05:36:50;11.67;;;7.17;;
3769;SDS011;1900;48.890;9.190;2023-04-15T05:39:16;9.67;;;7.30;;
3769;SDS011;1900;48.890;9.190;2023-04-15T05:41:42;18.83;;;7.13;;
3769;SDS011;1900;48.890;9.190;2023-04-15T05:44:08;18.20;;;6.77;;
3769;SDS011;1900;48.890;9.190;2023-04-15T05:46:34;13.43;;;7.53;;
3769;SDS011;1900;48.890;9.190;2023-04-15T05:49:00;13.70;;;7.60;;
3769;SDS011;1900;48.890;9.190;2023-04-15T05:51:25;15.17;;;7.60;;
3769;SDS011;1900;48.890;9.190;2023-04-15T05:53:51;19.17;;;8.13;;
3769;SDS011;1900;48.890;9.190;2023-04-15T05:56:17;13.10;;;6.90;;
3769;SDS011;1900;48.890;9.190;2023-04-15T05:58:44;9.10;;;7.33;;
3769;SDS011;1900;48.890;9.190;2023-04-15T06:01:10;10.70;;;7.30;;
3769;SDS011;1900;48.890;9.190;2023-04-15T06:03:36;14.60;;;7.47;;
3769;SDS011;1900;48.890;9.190;2023-04-15T06:06:02;13.63;;;7.50;;
3769;SDS011;1900;48.890;9.190;2023-04-15T06:08:28;14.83;;;8.73;;
3769;SDS011;1900;48.890;9.190;2023-04-15T06:10:54;12.53;;;7.70;;
3769;SDS011;1900;48.890;9.190;2023-04-15T06:13:20;13.50;;;7.70;;
3769;SDS011;1900;48.890;9.190;2023-04-15T06:15:45;13.63;;;7.50;;
3769;SDS011;1900;48.890;9.190;2023-04-15T06:18:11;13.80;;;7.30;;
3769;SDS011;1900;48.890;9.190;2023-04-15T06:20:37;13.57;;;7.10;;
3769;SDS011;1900;48.890;9.190;2023-04-15T06:23:03;12.90;;;8.10;;
3769;SDS011;1900;48.890;9.190;2023-04-15T06:25:28;15.93;;;7.20;;
3769;SDS011;1900;48.890;9.190;2023-04-15T06:27:54;15.87;;;6.70;;
3769;SDS011;1900;48.890;9.190;2023-04-15T06:30:20;17.87;;;6.50;;
3769;SDS011;1900;48.890;9.190;2023-04-15T06:32:45;13.50;;;7.17;;
3769;SDS011;1900;48.890;9.190;2023-04-15T06:35:11;10.87;;;7.37;;
3769;SDS011;1900;48.890;9.190;2023-04-15T06:37:38;9.53;;;6.50;;
3769;SDS011;1900;48.890;9.190;2023-04-15T06:40:04;10.83;;;6.57;;
3769;SDS011;1900;48.890;9.190;2023-04-15T06:42:30;12.77;;;7.20;;
3769;SDS011;1900;48.890;9.190;2023-04-15T06:44:56;13.00;;;6.43;;
3769;SDS011;1900;48.890;9.190;2023-04-15T06:47:22;12.77;;;6.37;;
3769;SDS011;1900;48.890;9.190;2023-04-15T06:49:47;10.53;;;6.40;;
3769;SDS011;1900;48.890;9.190;2023-04-15T06:52:13;11.27;;;6.10;;
3769;SDS011;1900;48.890;9.190;2023-04-15T06:54:40;10.30;;;6.60;;
3769;SDS011;1900;48.890;9.190;2023-04-15T06:57:06;10.50;;;6.83;;
3769;SDS011;1900;48.890;9.190;2023-04-15T06:59:33;13.87;;;7.10;;
3769;SDS011;1900;48.890;9.190;2023-04-15T07:01:59;10.17;;;6.10;;
3769;SDS011;1900;48.890;9.190;2023-04-15T07:04:25;12.80;;;5.90;;
3769;SDS011;1900;48.890;9.190;2023-04-15T07:06:52;13.63;;;7.10;;
3769;SDS011;1900;48.890;9.190;2023-04-15T07:09:20;8.17;;;5.77;;
3769;SDS011;1900;48.890;9.190;2023-04-15T07:11:46;11.43;;;6.40;;
3769;SDS011;1900;48.890;9.190;2023-04-15T07:14:12;11.03;;;6.27;;
3769;SDS011;1900;48.890;9.190;2023-04-15T07:16:37;14.60;;;7.10;;
3769;SDS011;1900;48.890;9.190;2023-04-15T07:19:03;16.80;;;6.60;;
3769;SDS011;1900;48.890;9.190;2023-04-15T07:21:29;15.87;;;6.63;;
3769;SDS011;1900;48.890;9.190;2023-04-15T07:23:54;9.40;;;5.50;;
3769;SDS011;1900;48.890;9.190;2023-04-15T07:26:20;7.80;;;5.67;;
3769;SDS011;1900;48.890;9.190;2023-04-15T07:28:46;15.47;;;7.60;;
3769;SDS011;1900;48.890;9.190;2023-04-15T07:31:11;17.00;;;7.07;;
3769;SDS011;1900;48.890;9.190;2023-04-15T07:33:39;14.53;;;5.97;;
3769;SDS011;1900;48.890;9.190;2023-04-15T07:36:05;12.57;;;6.50;;
3769;SDS011;1900;48.890;9.190;2023-04-15T07:38:31;12.57;;;6.47;;
3769;SDS011;1900;48.890;9.190;2023-04-15T07:40:57;11.60;;;6.50;;
3769;SDS011;1900;48.890;9.190;2023-04-15T07:43:23;11.37;;;7.20;;
3769;SDS011;1900;48.890;9.190;2023-04-15T07:45:49;10.37;;;6.30;;
3769;SDS011;1900;48.890;9.190;2023-04-15T07:48:14;17.40;;;6.70;;
3769;SDS011;1900;48.890;9.190;2023-04-15T07:50:40;19.97;;;6.63;;
3769;SDS011;1900;48.890;9.190;2023-04-15T07:53:06;9.77;;;5.50;;
3769;SDS011;1900;48.890;9.190;2023-04-15T07:55:33;11.63;;;6.00;;
3769;SDS011;1900;48.890;9.190;2023-04-15T07:57:58;8.33;;;6.43;;
3769;SDS011;1900;48.890;9.190;2023-04-15T08:00:24;13.43;;;6.93;;
3769;SDS011;1900;48.890;9.190;2023-04-15T08:02:50;14.47;;;6.33;;
3769;SDS011;1900;48.890;9.190;2023-04-15T08:05:17;8.50;;;6.30;;
3769;SDS011;1900;48.890;9.190;2023-04-15T08:07:43;9.07;;;6.07;;
3769;SDS011;1900;48.890;9.190;2023-04-15T08:10:09;12.10;;;6.47;;
3769;SDS011;1900;48.890;9.190;2023-04-15T08:12:36;11.00;;;5.80;;
3769;SDS011;1900;48.890;9.190;2023-04-15T08:15:02;11.10;;;6.40;;
3769;SDS011;1900;48.890;9.190;2023-04-15T08:17:28;10.93;;;6.27;;
3769;SDS011;1900;48.890;9.190;2023-04-15T08:19:54;10.73;;;6.33;;
3769;SDS011;1900;48.890;9.190;2023-04-15T08:22:20;8.60;;;5.73;;
3769;SDS011;1900;48.890;9.190;2023-04-15T08:24:45;9.40;;;5.97;;
3769;SDS011;1900;48.890;9.190;2023-04-15T08:27:11;8.70;;;4.90;;
3769;SDS011;1900;48.890;9.190;2023-04-15T08:29:37;8.37;;;5.07;;
3769;SDS011;1900;48.890;9.190;2023-04-15T08:32:03;12.53;;;5.67;;
3769;SDS011;1900;48.890;9.190;2023-04-15T08:34:30;10.90;;;5.37;;
3769;SDS011;1900;48.890;9.190;2023-04-15T08:36:56;16.13;;;6.53;;
3769;SDS011;1900;48.890;9.190;2023-04-15T08:39:21;6.07;;;4.60;;
3769;SDS011;1900;48.890;9.190;2023-04-15T08:44:19;10.50;;;4.77;;
3769;SDS011;1900;48.890;9.190;2023-04-15T08:46:46;11.63;;;5.30;;
3769;SDS011;1900;48.890;9.190;2023-04-15T08:49:12;11.87;;;4.90;;
3769;SDS011;1900;48.890;9.190;2023-04-15T08:51:40;11.00;;;4.83;;
3769;SDS011;1900;48.890;9.190;2023-04-15T08:54:06;6.30;;;3.93;;
3769;SDS011;1900;48.890;9.190;2023-04-15T08:56:32;11.13;;;4.50;;
3769;SDS011;1900;48.890;9.190;2023-04-15T08:59:03;7.87;;;3.87;;
3769;SDS011;1900;48.890;9.190;2023-04-15T09:01:30;4.90;;;3.63;;
3769;SDS011;1900;48.890;9.190;2023-04-15T09:03:56;6.87;;;4.23;;
3769;SDS011;1900;48.890;9.190;2023-04-15T09:06:24;4.87;;;3.17;;
3769;SDS011;1900;48.890;9.190;2023-04-15T09:08:50;10.47;;;4.53;;
3769;SDS011;1900;48.890;9.190;2023-04-15T09:11:17;10.20;;;4.33;;
3769;SDS011;1900;48.890;9.190;2023-04-15T09:13:43;7.20;;;4.57;;
3769;SDS011;1900;48.890;9.190;2023-04-15T09:16:09;7.60;;;5.33;;
3769;SDS011;1900;48.890;9.190;2023-04-15T09:18:35;22.03;;;4.50;;
3769;SDS011;1900;48.890;9.190;2023-04-15T09:21:03;9.20;;;4.90;;
3769;SDS011;1900;48.890;9.190;2023-04-15T09:23:30;6.80;;;4.00;;
3769;SDS011;1900;48.890;9.190;2023-04-15T09:25:56;8.90;;;4.20;;
3769;SDS011;1900;48.890;9.190;2023-04-15T09:28:23;7.00;;;4.10;;
3769;SDS011;1900;48.890;9.190;2023-04-15T09:30:51;7.00;;;3.90;;
3769;SDS011;1900;48.890;9.190;2023-04-15T09:33:21;8.87;;;4.40;;
3769;SDS011;1900;48.890;9.190;2023-04-15T09:35:55;8.23;;;4.20;;
3769;SDS011;1900;48.890;9.190;2023-04-15T09:38:22;5.93;;;4.03;;
3769;SDS011;1900;48.890;9.190;2023-04-15T09:40:47;5.00;;;4.13;;
3769;SDS011;1900;48.890;9.190;2023-04-15T09:43:13;8.27;;;4.40;;
3769;SDS011;1900;48.890;9.190;2023-04-15T09:45:46;10.70;;;4.03;;
3769;SDS011;1900;48.890;9.190;2023-04-15T09:50:45;6.80;;;4.40;;
3769;SDS011;1900;48.890;9.190;2023-04-15T09:53:19;5.40;;;4.03;;
3769;SDS011;1900;48.890;9.190;2023-04-15T09:55:48;6.90;;;3.80;;
3769;SDS011;1900;48.890;9.190;2023-04-15T09:58:26;5.10;;;3.40;;
3769;SDS011;1900;48.890;9.190;2023-04-15T10:00:56;7.80;;;4.30;;
3769;SDS011;1900;48.890;9.190;2023-04-15T10:05:56;6.23;;;3.93;;
3769;SDS011;1900;48.890;9.190;2023-04-15T10:08:28;6.47;;;4.20;;
3769;SDS011;1900;48.890;9.190;2023-04-15T10:10:54;14.90;;;3.93;;
3769;SDS011;1900;48.890;9.190;2023-04-15T10:13:25;4.60;;;3.57;;
3769;SDS011;1900;48.890;9.190;2023-04-15T10:15:57;6.20;;;3.40;;
3769;SDS011;1900;48.890;9.190;2023-04-15T10:18:25;8.00;;;4.20;;
3769;SDS011;1900;48.890;9.190;2023-04-15T10:20:52;6.40;;;3.63;;
3769;SDS011;1900;48.890;9.190;2023-04-15T10:23:19;7.30;;;3.67;;
3769;SDS011;1900;48.890;9.190;2023-04-15T10:25:45;5.83;;;3.33;;
3769;SDS011;1900;48.890;9.190;2023-04-15T10:28:13;7.07;;;3.60;;
3769;SDS011;1900;48.890;9.190;2023-04-15T10:30:40;5.23;;;4.00;;
3769;SDS011;1900;48.890;9.190;2023-04-15T10:33:06;9.10;;;3.53;;
3769;SDS011;1900;48.890;9.190;2023-04-15T10:35:35;7.60;;;4.60;;
3769;SDS011;1900;48.890;9.190;2023-04-15T10:38:01;4.30;;;3.20;;
3769;SDS011;1900;48.890;9.190;2023-04-15T10:40:30;8.83;;;3.67;;
3769;SDS011;1900;48.890;9.190;2023-04-15T10:43:00;6.77;;;3.17;;
3769;SDS011;1900;48.890;9.190;2023-04-15T10:48:01;5.13;;;3.07;;
3769;SDS011;1900;48.890;9.190;2023-04-15T10:50:29;5.57;;;2.50;;
3769;SDS011;1900;48.890;9.190;2023-04-15T10:52:56;9.93;;;4.03;;
3769;SDS011;1900;48.890;9.190;2023-04-15T10:55:26;6.00;;;2.97;;
3769;SDS011;1900;48.890;9.190;2023-04-15T10:57:59;4.30;;;3.47;;
3769;SDS011;1900;48.890;9.190;2023-04-15T11:00:29;7.03;;;3.90;;
3769;SDS011;1900;48.890;9.190;2023-04-15T11:08:05;5.47;;;4.00;;
3769;SDS011;1900;48.890;9.190;2023-04-15T11:12:59;7.50;;;4.13;;
3769;SDS011;1900;48.890;9.190;2023-04-15T11:15:30;12.13;;;4.40;;
3769;SDS011;1900;48.890;9.190;2023-04-15T11:20:51;6.07;;;4.53;;
3769;SDS011;1900;48.890;9.190;2023-04-15T11:23:31;9.30;;;5.07;;
3769;SDS011;1900;48.890;9.190;2023-04-15T11:25:58;8.20;;;4.10;;
3769;SDS011;1900;48.890;9.190;2023-04-15T11:28:29;4.50;;;3.23;;
3769;SDS011;1900;48.890;9.190;2023-04-15T11:30:56;9.80;;;4.10;;
3769;SDS011;1900;48.890;9.190;2023-04-15T11:33:22;5.87;;;3.67;;
3769;SDS011;1900;48.890;9.190;2023-04-15T11:35:49;5.00;;;3.50;;
3769;SDS011;1900;48.890;9.190;2023-04-15T11:38:19;5.10;;;3.70;;
3769;SDS011;1900;48.890;9.190;2023-04-15T11:40:45;6.47;;;4.40;;
3769;SDS011;1900;48.890;9.190;2023-04-15T11:43:12;9.70;;;3.60;;
3769;SDS011;1900;48.890;9.190;2023-04-15T11:45:47;6.37;;;3.50;;
3769;SDS011;1900;48.890;9.190;2023-04-15T11:48:15;6.40;;;3.37;;
3769;SDS011;1900;48.890;9.190;2023-04-15T11:50:42;3.80;;;3.40;;
3769;SDS011;1900;48.890;9.190;2023-04-15T11:53:08;5.87;;;3.07;;
3769;SDS011;1900;48.890;9.190;2023-04-15T11:55:51;8.90;;;3.10;;
3769;SDS011;1900;48.890;9.190;2023-04-15T11:58:22;3.33;;;2.53;;
3769;SDS011;1900;48.890;9.190;2023-04-15T12:00:50;6.50;;;2.23;;
3769;SDS011;1900;48.890;9.190;2023-04-15T12:03:29;3.90;;;2.67;;
3769;SDS011;1900;48.890;9.190;2023-04-15T12:09:14;3.73;;;3.37;;
3769;SDS011;1900;48.890;9.190;2023-04-15T12:16:41;6.53;;;3.30;;
3769;SDS011;1900;48.890;9.190;2023-04-15T12:19:10;7.73;;;3.13;;
3769;SDS011;1900;48.890;9.190;2023-04-15T12:21:39;8.60;;;3.77;;
3769;SDS011;1900;48.890;9.190;2023-04-15T12:24:07;8.10;;;4.27;;
3769;SDS011;1900;48.890;9.190;2023-04-15T12:26:34;6.63;;;4.30;;
3769;SDS011;1900;48.890;9.190;2023-04-15T12:29:04;4.60;;;3.80;;
3769;SDS011;1900;48.890;9.190;2023-04-15T12:31:32;4.43;;;3.60;;
3769;SDS011;1900;48.890;9.190;2023-04-15T12:34:01;5.97;;;3.33;;
3769;SDS011;1900;48.890;9.190;2023-04-15T12:36:29;2.90;;;2.37;;
3769;SDS011;1900;48.890;9.190;2023-04-15T12:39:00;3.20;;;2.20;;
3769;SDS011;1900;48.890;9.190;2023-04-15T12:41:27;7.37;;;2.80;;
3769;SDS011;1900;48.890;9.190;2023-04-15T12:43:53;6.90;;;2.80;;
3769;SDS011;1900;48.890;9.190;2023-04-15T12:46:18;5.23;;;2.53;;
3769;SDS011;1900;48.890;9.190;2023-04-15T12:48:44;3.87;;;2.30;;
3769;SDS011;1900;48.890;9.190;2023-04-15T12:51:10;6.07;;;2.87;;
3769;SDS011;1900;48.890;9.190;2023-04-15T12:53:36;4.30;;;2.77;;
3769;SDS011;1900;48.890;9.190;2023-04-15T12:56:01;4.73;;;3.50;;
3769;SDS011;1900;48.890;9.190;2023-04-15T12:58:27;9.80;;;4.53;;
3769;SDS011;1900;48.890;9.190;2023-04-15T13:00:53;7.70;;;4.47;;
3769;SDS011;1900;48.890;9.190;2023-04-15T13:03:19;4.53;;;3.00;;
3769;SDS011;1900;48.890;9.190;2023-04-15T13:05:45;4.73;;;3.50;;
3769;SDS011;1900;48.890;9.190;2023-04-15T13:08:10;8.77;;;3.40;;
3769;SDS011;1900;48.890;9.190;2023-04-15T13:10:36;5.27;;;3.10;;
3769;SDS011;1900;48.890;9.190;2023-04-15T13:13:02;5.20;;;2.97;;
3769;SDS011;1900;48.890;9.190;2023-04-15T13:15:28;3.77;;;3.03;;
3769;SDS011;1900;48.890;9.190;2023-04-15T13:17:54;12.87;;;3.50;;
3769;SDS011;1900;48.890;9.190;2023-04-15T13:20:20;7.50;;;2.83;;
3769;SDS011;1900;48.890;9.190;2023-04-15T13:22:46;3.00;;;2.10;;
3769;SDS011;1900;48.890;9.190;2023-04-15T13:25:12;3.73;;;1.80;;
3769;SDS011;1900;48.890;9.190;2023-04-15T13:27:37;7.83;;;1.60;;
3769;SDS011;1900;48.890;9.190;2023-04-15T13:30:03;4.20;;;1.73;;
3769;SDS011;1900;48.890;9.190;2023-04-15T13:32:30;3.33;;;2.23;;
3769;SDS011;1900;48.890;9.190;2023-04-15T13:34:56;1.70;;;1.60;;
3769;SDS011;1900;48.890;9.190;2023-04-15T13:37:27;3.60;;;2.23;;
3769;SDS011;1900;48.890;9.190;2023-04-15T13:39:54;3.80;;;1.80;;
3769;SDS011;1900;48.890;9.190;2023-04-15T13:42:23;2.23;;;1.47;;
3769;SDS011;1900;48.890;9.190;2023-04-15T13:44:49;2.40;;;1.40;;
3769;SDS011;1900;48.890;9.190;2023-04-15T13:47:18;2.17;;;1.47;;
3769;SDS011;1900;48.890;9.190;2023-04-15T13:49:44;4.83;;;1.60;;
3769;SDS011;1900;48.890;9.190;2023-04-15T13:52:10;3.20;;;1.60;;
3769;SDS011;1900;48.890;9.190;2023-04-15T13:54:36;3.60;;;1.47;;
3769;SDS011;1900;48.890;9.190;2023-04-15T13:57:02;3.43;;;1.63;;
3769;SDS011;1900;48.890;9.190;2023-04-15T13:59:29;7.80;;;1.90;;
3769;SDS011;1900;48.890;9.190;2023-04-15T14:01:54;2.23;;;1.40;;
3769;SDS011;1900;48.890;9.190;2023-04-15T14:04:20;5.60;;;1.60;;
3769;SDS011;1900;48.890;9.190;2023-04-15T14:06:46;2.73;;;1.60;;
3769;SDS011;1900;48.890;9.190;2023-04-15T14:09:12;2.60;;;1.67;;
3769;SDS011;1900;48.890;9.190;2023-04-15T14:11:37;2.23;;;1.70;;
3769;SDS011;1900;48.890;9.190;2023-04-15T14:14:03;2.80;;;1.77;;
3769;SDS011;1900;48.890;9.190;2023-04-15T14:16:31;2.20;;;1.73;;
3769;SDS011;1900;48.890;9.190;2023-04-15T14:18:57;3.40;;;1.67;;
3769;SDS011;1900;48.890;9.190;2023-04-15T14:21:23;1.70;;;1.57;;
3769;SDS011;1900;48.890;9.190;2023-04-15T14:23:50;1.83;;;1.50;;
3769;SDS011;1900;48.890;9.190;2023-04-15T14:26:16;6.20;;;2.03;;
3769;SDS011;1900;48.890;9.190;2023-04-15T14:28:41;5.13;;;1.83;;
3769;SDS011;1900;48.890;9.190;2023-04-15T14:31:09;2.40;;;1.73;;
3769;SDS011;1900;48.890;9.190;2023-04-15T14:33:35;6.80;;;2.30;;
3769;SDS011;1900;48.890;9.190;2023-04-15T14:36:00;5.50;;;2.90;;
3769;SDS011;1900;48.890;9.190;2023-04-15T14:38:26;2.73;;;2.13;;
3769;SDS011;1900;48.890;9.190;2023-04-15T14:40:52;4.40;;;1.90;;
3769;SDS011;1900;48.890;9.190;2023-04-15T14:43:18;5.47;;;2.10;;
3769;SDS011;1900;48.890;9.190;2023-04-15T14:45:44;2.20;;;1.67;;
3769;SDS011;1900;48.890;9.190;2023-04-15T14:48:10;2.80;;;1.70;;
3769;SDS011;1900;48.890;9.190;2023-04-15T14:50:36;2.30;;;1.80;;
3769;SDS011;1900;48.890;9.190;2023-04-15T14:53:02;5.23;;;1.90;;
3769;SDS011;1900;48.890;9.190;2023-04-15T14:55:28;2.30;;;1.77;;
3769;SDS011;1900;48.890;9.190;2023-04-15T14:57:54;1.63;;;1.50;;
3769;SDS011;1900;48.890;9.190;2023-04-15T15:00:20;4.23;;;1.97;;
3769;SDS011;1900;48.890;9.190;2023-04-15T15:02:45;3.40;;;2.03;;
3769;SDS011;1900;48.890;9.190;2023-04-15T15:05:11;5.00;;;1.83;;
3769;SDS011;1900;48.890;9.190;2023-04-15T15:07:37;3.20;;;2.10;;
3769;SDS011;1900;48.890;9.190;2023-04-15T15:10:04;4.80;;;2.10;;
3769;SDS011;1900;48.890;9.190;2023-04-15T15:12:31;4.73;;;2.80;;
3769;SDS011;1900;48.890;9.190;2023-04-15T15:14:57;5.37;;;3.43;;
3769;SDS011;1900;48.890;9.190;2023-04-15T15:17:23;4.00;;;2.10;;
3769;SDS011;1900;48.890;9.190;2023-04-15T15:19:49;3.47;;;2.23;;
3769;SDS011;1900;48.890;9.190;2023-04-15T15:22:15;2.60;;;1.83;;
3769;SDS011;1900;48.890;9.190;2023-04-15T15:24:41;2.20;;;2.00;;
3769;SDS011;1900;48.890;9.190;2023-04-15T15:27:07;2.80;;;1.67;;
3769;SDS011;1900;48.890;9.190;2023-04-15T15:29:32;4.10;;;2.30;;
3769;SDS011;1900;48.890;9.190;2023-04-15T15:31:58;2.13;;;1.90;;
3769;SDS011;1900;48.890;9.190;2023-04-15T15:34:24;1.93;;;1.60;;
3769;SDS011;1900;48.890;9.190;2023-04-15T15:36:51;2.40;;;2.20;;